Mc Leod, Montana
Current Conditions -  °F | °C
As of 5:53 AM on Thursday 18 Dec 2014 (Local Time) from KLVM Reporting Station
Few Clouds Few Clouds  
Wind Chill: 21°   Ceiling: Unl
Heat Index: 33°   Visibility: 10mi
Dew Point: 17°   Wind: 23mph
Humidity: 52%   Direction: 240°WSW
Pressure: 29.95"   Gusts: 32mph
Location:  45.6625°N, 110.109°W
Report Text: KLVM 181253Z AUTO 24020G28KT 10SM FEW070 01/M08 A2995 RMK AO2 PK WND 22032/1216 SLP167 T00061083
Loading
Personal Weather Stations






























Interactive Weather Map New forecast layout! Learn more

10-Day Weather Forecast

Advertisements
Track Severe Weather on mobile